sensor_id;sensor_type;location;lat;lon;timestamp;temperature;humidity
64858;SHT30;51335;51.148;6.950;2022-09-09T00:00:19;15.85;93.99
64858;SHT30;51335;51.148;6.950;2022-09-09T00:00:57;15.82;94.02
64858;SHT30;51335;51.148;6.950;2022-09-09T00:02:27;15.82;94.11
64858;SHT30;51335;51.148;6.950;2022-09-09T00:03:43;15.73;94.27
64858;SHT30;51335;51.148;6.950;2022-09-09T00:04:17;15.69;94.48
64858;SHT30;51335;51.148;6.950;2022-09-09T00:06:33;15.63;94.74
64858;SHT30;51335;51.148;6.950;2022-09-09T00:07:07;15.61;94.81
64858;SHT30;51335;51.148;6.950;2022-09-09T00:07:47;15.65;95.11
64858;SHT30;51335;51.148;6.950;2022-09-09T00:08:20;15.63;94.97
64858;SHT30;51335;51.148;6.950;2022-09-09T00:09:49;15.53;95.14
64858;SHT30;51335;51.148;6.950;2022-09-09T00:10:39;15.52;95.14
64858;SHT30;51335;51.148;6.950;2022-09-09T00:11:12;15.49;95.30
64858;SHT30;51335;51.148;6.950;2022-09-09T00:11:46;15.48;95.39
64858;SHT30;51335;51.148;6.950;2022-09-09T00:12:34;15.52;95.58
64858;SHT30;51335;51.148;6.950;2022-09-09T00:13:43;15.73;94.93
64858;SHT30;51335;51.148;6.950;2022-09-09T00:14:18;15.80;94.65
64858;SHT30;51335;51.148;6.950;2022-09-09T00:14:55;15.86;94.32
64858;SHT30;51335;51.148;6.950;2022-09-09T00:16:25;15.76;94.38
64858;SHT30;51335;51.148;6.950;2022-09-09T00:17:01;15.69;94.47
64858;SHT30;51335;51.148;6.950;2022-09-09T00:17:58;15.74;94.64
64858;SHT30;51335;51.148;6.950;2022-09-09T00:18:32;15.78;94.59
64858;SHT30;51335;51.148;6.950;2022-09-09T00:21:33;15.76;94.33
64858;SHT30;51335;51.148;6.950;2022-09-09T00:22:16;15.69;94.46
64858;SHT30;51335;51.148;6.950;2022-09-09T00:22:57;15.66;94.66
64858;SHT30;51335;51.148;6.950;2022-09-09T00:23:35;15.70;94.84
64858;SHT30;51335;51.148;6.950;2022-09-09T00:24:23;15.76;94.68
64858;SHT30;51335;51.148;6.950;2022-09-09T00:24:57;15.73;94.59
64858;SHT30;51335;51.148;6.950;2022-09-09T00:25:51;15.66;94.68
64858;SHT30;51335;51.148;6.950;2022-09-09T00:26:47;15.55;94.88
64858;SHT30;51335;51.148;6.950;2022-09-09T00:27:37;15.45;95.07
64858;SHT30;51335;51.148;6.950;2022-09-09T00:28:16;15.41;95.23
64858;SHT30;51335;51.148;6.950;2022-09-09T00:29:12;15.35;95.69
64858;SHT30;51335;51.148;6.950;2022-09-09T00:29:57;15.31;95.88
64858;SHT30;51335;51.148;6.950;2022-09-09T00:30:34;15.27;95.90
64858;SHT30;51335;51.148;6.950;2022-09-09T00:31:12;15.24;95.93
64858;SHT30;51335;51.148;6.950;2022-09-09T00:31:42;15.21;96.04
64858;SHT30;51335;51.148;6.950;2022-09-09T00:32:16;15.18;96.15
64858;SHT30;51335;51.148;6.950;2022-09-09T00:33:33;15.15;96.30
64858;SHT30;51335;51.148;6.950;2022-09-09T00:33:39;15.10;96.52
64858;SHT30;51335;51.148;6.950;2022-09-09T00:34:18;15.08;96.70
64858;SHT30;51335;51.148;6.950;2022-09-09T00:35:21;15.08;96.93
64858;SHT30;51335;51.148;6.950;2022-09-09T00:35:57;15.08;97.08
64858;SHT30;51335;51.148;6.950;2022-09-09T00:36:30;15.07;97.21
64858;SHT30;51335;51.148;6.950;2022-09-09T00:37:02;15.07;97.26
64858;SHT30;51335;51.148;6.950;2022-09-09T00:37:33;15.08;97.31
64858;SHT30;51335;51.148;6.950;2022-09-09T00:38:11;15.05;97.43
64858;SHT30;51335;51.148;6.950;2022-09-09T00:38:47;15.05;97.47
64858;SHT30;51335;51.148;6.950;2022-09-09T00:39:41;15.08;97.54
64858;SHT30;51335;51.148;6.950;2022-09-09T00:40:27;15.10;97.58
64858;SHT30;51335;51.148;6.950;2022-09-09T00:41:05;15.11;97.64
64858;SHT30;51335;51.148;6.950;2022-09-09T00:42:38;15.12;97.72
64858;SHT30;51335;51.148;6.950;2022-09-09T00:43:24;15.14;97.77
64858;SHT30;51335;51.148;6.950;2022-09-09T00:44:20;15.17;97.81
64858;SHT30;51335;51.148;6.950;2022-09-09T00:46:50;15.20;97.81
64858;SHT30;51335;51.148;6.950;2022-09-09T00:47:46;15.21;97.80
64858;SHT30;51335;51.148;6.950;2022-09-09T00:48:23;15.21;97.73
64858;SHT30;51335;51.148;6.950;2022-09-09T00:51:00;15.27;97.73
64858;SHT30;51335;51.148;6.950;2022-09-09T00:51:40;15.30;97.77
64858;SHT30;51335;51.148;6.950;2022-09-09T00:56:02;15.35;97.97
64858;SHT30;51335;51.148;6.950;2022-09-09T00:56:37;15.38;98.06
64858;SHT30;51335;51.148;6.950;2022-09-09T00:57:23;15.38;97.93
64858;SHT30;51335;51.148;6.950;2022-09-09T00:57:55;15.41;97.95
64858;SHT30;51335;51.148;6.950;2022-09-09T00:58:25;15.42;97.97
64858;SHT30;51335;51.148;6.950;2022-09-09T00:59:22;15.42;97.92
64858;SHT30;51335;51.148;6.950;2022-09-09T01:00:24;15.45;97.88
64858;SHT30;51335;51.148;6.950;2022-09-09T01:01:13;15.43;97.89
64858;SHT30;51335;51.148;6.950;2022-09-09T01:01:43;15.51;97.85
64858;SHT30;51335;51.148;6.950;2022-09-09T01:03:21;15.51;97.77
64858;SHT30;51335;51.148;6.950;2022-09-09T01:03:53;15.49;97.77
64858;SHT30;51335;51.148;6.950;2022-09-09T01:04:29;15.49;97.71
64858;SHT30;51335;51.148;6.950;2022-09-09T01:05:10;15.48;97.80
64858;SHT30;51335;51.148;6.950;2022-09-09T01:06:38;15.49;97.78
64858;SHT30;51335;51.148;6.950;2022-09-09T01:07:17;15.52;97.74
64858;SHT30;51335;51.148;6.950;2022-09-09T01:07:48;15.51;97.74
64858;SHT30;51335;51.148;6.950;2022-09-09T01:08:42;15.51;97.77
64858;SHT30;51335;51.148;6.950;2022-09-09T01:09:34;15.48;97.79
64858;SHT30;51335;51.148;6.950;2022-09-09T01:10:43;15.48;97.80
64858;SHT30;51335;51.148;6.950;2022-09-09T01:11:21;15.49;97.77
64858;SHT30;51335;51.148;6.950;2022-09-09T01:12:09;15.51;97.81
64858;SHT30;51335;51.148;6.950;2022-09-09T01:12:43;15.48;97.85
64858;SHT30;51335;51.148;6.950;2022-09-09T01:13:24;15.46;97.81
64858;SHT30;51335;51.148;6.950;2022-09-09T01:14:47;15.49;97.83
64858;SHT30;51335;51.148;6.950;2022-09-09T01:15:22;15.49;97.77
64858;SHT30;51335;51.148;6.950;2022-09-09T01:15:54;15.49;97.79
64858;SHT30;51335;51.148;6.950;2022-09-09T01:16:24;15.46;97.71
64858;SHT30;51335;51.148;6.950;2022-09-09T01:16:59;15.49;97.80
64858;SHT30;51335;51.148;6.950;2022-09-09T01:17:40;15.46;97.74
64858;SHT30;51335;51.148;6.950;2022-09-09T01:18:13;15.45;97.77
64858;SHT30;51335;51.148;6.950;2022-09-09T01:18:49;15.45;97.76
64858;SHT30;51335;51.148;6.950;2022-09-09T01:19:35;15.43;97.73
64858;SHT30;51335;51.148;6.950;2022-09-09T01:20:15;15.42;97.77
64858;SHT30;51335;51.148;6.950;2022-09-09T01:22:01;15.39;97.81
64858;SHT30;51335;51.148;6.950;2022-09-09T01:24:27;15.36;97.92
64858;SHT30;51335;51.148;6.950;2022-09-09T01:26:41;15.31;97.99
64858;SHT30;51335;51.148;6.950;2022-09-09T01:27:13;15.31;97.97
64858;SHT30;51335;51.148;6.950;2022-09-09T01:27:48;15.28;97.92
64858;SHT30;51335;51.148;6.950;2022-09-09T01:28:23;15.28;97.94
64858;SHT30;51335;51.148;6.950;2022-09-09T01:28:55;15.30;97.95
64858;SHT30;51335;51.148;6.950;2022-09-09T01:29:26;15.30;97.97
64858;SHT30;51335;51.148;6.950;2022-09-09T01:29:56;15.28;97.97
64858;SHT30;51335;51.148;6.950;2022-09-09T01:30:27;15.30;97.98
64858;SHT30;51335;51.148;6.950;2022-09-09T01:30:58;15.28;97.98
64858;SHT30;51335;51.148;6.950;2022-09-09T01:31:33;15.27;98.04
64858;SHT30;51335;51.148;6.950;2022-09-09T01:33:15;15.28;98.21
64858;SHT30;51335;51.148;6.950;2022-09-09T01:33:46;15.27;98.17
64858;SHT30;51335;51.148;6.950;2022-09-09T01:34:17;15.28;98.15
64858;SHT30;51335;51.148;6.950;2022-09-09T01:34:47;15.25;98.15
64858;SHT30;51335;51.148;6.950;2022-09-09T01:36:21;15.25;98.17
64858;SHT30;51335;51.148;6.950;2022-09-09T01:36:41;15.25;98.10
64858;SHT30;51335;51.148;6.950;2022-09-09T01:37:13;15.24;98.06
64858;SHT30;51335;51.148;6.950;2022-09-09T01:37:43;15.20;98.07
64858;SHT30;51335;51.148;6.950;2022-09-09T01:38:14;15.18;98.12
64858;SHT30;51335;51.148;6.950;2022-09-09T01:38:45;15.17;98.14
64858;SHT30;51335;51.148;6.950;2022-09-09T01:39:15;15.20;98.10
64858;SHT30;51335;51.148;6.950;2022-09-09T01:39:45;15.17;98.10
64858;SHT30;51335;51.148;6.950;2022-09-09T01:40:16;15.12;98.16
64858;SHT30;51335;51.148;6.950;2022-09-09T01:40:46;15.14;98.12
64858;SHT30;51335;51.148;6.950;2022-09-09T01:41:17;15.10;98.11
64858;SHT30;51335;51.148;6.950;2022-09-09T01:41:47;15.10;98.13
64858;SHT30;51335;51.148;6.950;2022-09-09T01:42:18;15.17;98.18
64858;SHT30;51335;51.148;6.950;2022-09-09T01:42:48;15.17;98.12
64858;SHT30;51335;51.148;6.950;2022-09-09T01:43:20;15.15;98.12
64858;SHT30;51335;51.148;6.950;2022-09-09T01:43:53;15.14;98.19
64858;SHT30;51335;51.148;6.950;2022-09-09T01:44:25;15.10;98.14
64858;SHT30;51335;51.148;6.950;2022-09-09T01:44:56;15.08;98.16
64858;SHT30;51335;51.148;6.950;2022-09-09T01:45:26;15.08;98.17
64858;SHT30;51335;51.148;6.950;2022-09-09T01:45:59;15.04;98.17
64858;SHT30;51335;51.148;6.950;2022-09-09T01:46:30;15.05;98.20
64858;SHT30;51335;51.148;6.950;2022-09-09T01:47:00;15.05;98.26
64858;SHT30;51335;51.148;6.950;2022-09-09T01:47:31;15.04;98.30
64858;SHT30;51335;51.148;6.950;2022-09-09T01:48:02;15.01;98.27
64858;SHT30;51335;51.148;6.950;2022-09-09T01:48:32;15.03;98.29
64858;SHT30;51335;51.148;6.950;2022-09-09T01:49:05;15.03;98.33
64858;SHT30;51335;51.148;6.950;2022-09-09T01:49:36;15.01;98.35
64858;SHT30;51335;51.148;6.950;2022-09-09T01:50:09;14.98;98.31
64858;SHT30;51335;51.148;6.950;2022-09-09T01:50:41;14.93;98.40
64858;SHT30;51335;51.148;6.950;2022-09-09T01:51:11;14.93;98.45
64858;SHT30;51335;51.148;6.950;2022-09-09T01:51:42;14.91;98.44
64858;SHT30;51335;51.148;6.950;2022-09-09T01:52:13;14.91;98.47
64858;SHT30;51335;51.148;6.950;2022-09-09T01:52:46;14.90;98.52
64858;SHT30;51335;51.148;6.950;2022-09-09T01:53:18;14.88;98.59
64858;SHT30;51335;51.148;6.950;2022-09-09T01:53:49;14.90;98.58
64858;SHT30;51335;51.148;6.950;2022-09-09T01:54:22;14.91;98.61
64858;SHT30;51335;51.148;6.950;2022-09-09T01:54:53;14.90;98.68
64858;SHT30;51335;51.148;6.950;2022-09-09T01:55:30;14.90;98.67
64858;SHT30;51335;51.148;6.950;2022-09-09T01:57:25;14.90;98.87
64858;SHT30;51335;51.148;6.950;2022-09-09T01:58:34;14.94;98.85
64858;SHT30;51335;51.148;6.950;2022-09-09T02:00:33;14.94;98.86
64858;SHT30;51335;51.148;6.950;2022-09-09T02:03:23;15.01;98.83
64858;SHT30;51335;51.148;6.950;2022-09-09T02:03:57;15.11;98.73
64858;SHT30;51335;51.148;6.950;2022-09-09T02:05:24;15.12;98.65
64858;SHT30;51335;51.148;6.950;2022-09-09T02:06:48;15.15;98.59
64858;SHT30;51335;51.148;6.950;2022-09-09T02:07:39;15.24;98.55
64858;SHT30;51335;51.148;6.950;2022-09-09T02:08:16;15.25;98.49
64858;SHT30;51335;51.148;6.950;2022-09-09T02:08:50;15.30;98.41
64858;SHT30;51335;51.148;6.950;2022-09-09T02:09:23;15.31;98.36
64858;SHT30;51335;51.148;6.950;2022-09-09T02:10:11;15.39;98.28
64858;SHT30;51335;51.148;6.950;2022-09-09T02:10:50;15.39;98.11
64858;SHT30;51335;51.148;6.950;2022-09-09T02:11:26;15.39;98.00
64858;SHT30;51335;51.148;6.950;2022-09-09T02:12:14;15.46;97.79
64858;SHT30;51335;51.148;6.950;2022-09-09T02:12:54;15.49;97.63
64858;SHT30;51335;51.148;6.950;2022-09-09T02:13:25;15.49;97.55
64858;SHT30;51335;51.148;6.950;2022-09-09T02:14:18;15.52;97.49
64858;SHT30;51335;51.148;6.950;2022-09-09T02:14:57;15.51;97.38
64858;SHT30;51335;51.148;6.950;2022-09-09T02:16:18;15.61;96.88
64858;SHT30;51335;51.148;6.950;2022-09-09T02:16:56;15.65;96.57
64858;SHT30;51335;51.148;6.950;2022-09-09T02:17:33;15.67;96.36
64858;SHT30;51335;51.148;6.950;2022-09-09T02:18:08;15.69;96.02
64858;SHT30;51335;51.148;6.950;2022-09-09T02:18:44;15.69;95.76
64858;SHT30;51335;51.148;6.950;2022-09-09T02:19:26;15.74;95.52
64858;SHT30;51335;51.148;6.950;2022-09-09T02:20:10;15.79;94.95
64858;SHT30;51335;51.148;6.950;2022-09-09T02:20:43;15.85;94.48
64858;SHT30;51335;51.148;6.950;2022-09-09T02:21:15;15.87;94.15
64858;SHT30;51335;51.148;6.950;2022-09-09T02:21:47;15.89;94.05
64858;SHT30;51335;51.148;6.950;2022-09-09T02:22:19;15.86;93.90
64858;SHT30;51335;51.148;6.950;2022-09-09T02:22:53;15.90;93.74
64858;SHT30;51335;51.148;6.950;2022-09-09T02:23:23;15.90;93.55
64858;SHT30;51335;51.148;6.950;2022-09-09T02:23:55;15.96;93.34
64858;SHT30;51335;51.148;6.950;2022-09-09T02:24:29;15.97;93.17
64858;SHT30;51335;51.148;6.950;2022-09-09T02:25:00;15.94;93.15
64858;SHT30;51335;51.148;6.950;2022-09-09T02:25:33;15.96;93.17
64858;SHT30;51335;51.148;6.950;2022-09-09T02:26:04;15.96;93.07
64858;SHT30;51335;51.148;6.950;2022-09-09T02:26:39;15.99;92.99
64858;SHT30;51335;51.148;6.950;2022-09-09T02:27:11;15.99;92.89
64858;SHT30;51335;51.148;6.950;2022-09-09T02:27:43;15.97;92.86
64858;SHT30;51335;51.148;6.950;2022-09-09T02:28:15;16.01;92.83
64858;SHT30;51335;51.148;6.950;2022-09-09T02:28:49;16.03;92.68
64858;SHT30;51335;51.148;6.950;2022-09-09T02:29:25;16.11;92.28
64858;SHT30;51335;51.148;6.950;2022-09-09T02:29:58;16.14;91.99
64858;SHT30;51335;51.148;6.950;2022-09-09T02:30:32;16.16;91.90
64858;SHT30;51335;51.148;6.950;2022-09-09T02:31:04;16.16;91.75
64858;SHT30;51335;51.148;6.950;2022-09-09T02:31:36;16.24;91.43
64858;SHT30;51335;51.148;6.950;2022-09-09T02:32:12;16.22;91.31
64858;SHT30;51335;51.148;6.950;2022-09-09T02:32:45;16.24;91.18
64858;SHT30;51335;51.148;6.950;2022-09-09T02:33:17;16.24;91.10
64858;SHT30;51335;51.148;6.950;2022-09-09T02:33:57;16.24;91.08
64858;SHT30;51335;51.148;6.950;2022-09-09T02:34:31;16.24;91.01
64858;SHT30;51335;51.148;6.950;2022-09-09T02:35:07;16.21;90.96
64858;SHT30;51335;51.148;6.950;2022-09-09T02:35:39;16.20;90.93
64858;SHT30;51335;51.148;6.950;2022-09-09T02:36:11;16.21;90.83
64858;SHT30;51335;51.148;6.950;2022-09-09T02:36:43;16.22;90.77
64858;SHT30;51335;51.148;6.950;2022-09-09T02:37:18;16.24;90.70
64858;SHT30;51335;51.148;6.950;2022-09-09T02:37:52;16.28;90.45
64858;SHT30;51335;51.148;6.950;2022-09-09T02:38:26;16.28;90.15
64858;SHT30;51335;51.148;6.950;2022-09-09T02:38:57;16.34;89.90
64858;SHT30;51335;51.148;6.950;2022-09-09T02:39:27;16.34;89.62
64858;SHT30;51335;51.148;6.950;2022-09-09T02:39:58;16.35;89.55
64858;SHT30;51335;51.148;6.950;2022-09-09T02:40:28;16.32;89.53
64858;SHT30;51335;51.148;6.950;2022-09-09T02:40:58;16.30;89.66
64858;SHT30;51335;51.148;6.950;2022-09-09T02:41:35;16.32;89.64
64858;SHT30;51335;51.148;6.950;2022-09-09T02:42:05;16.34;89.54
64858;SHT30;51335;51.148;6.950;2022-09-09T02:42:40;16.30;89.61
64858;SHT30;51335;51.148;6.950;2022-09-09T02:43:10;16.24;89.75
64858;SHT30;51335;51.148;6.950;2022-09-09T02:43:41;16.25;89.85
64858;SHT30;51335;51.148;6.950;2022-09-09T02:44:16;16.27;89.85
64858;SHT30;51335;51.148;6.950;2022-09-09T02:44:47;16.28;89.87
64858;SHT30;51335;51.148;6.950;2022-09-09T02:45:19;16.25;89.99
64858;SHT30;51335;51.148;6.950;2022-09-09T02:46:00;16.28;89.92
64858;SHT30;51335;51.148;6.950;2022-09-09T02:47:58;16.32;89.61
64858;SHT30;51335;51.148;6.950;2022-09-09T02:48:38;16.35;89.61
64858;SHT30;51335;51.148;6.950;2022-09-09T02:49:18;16.30;89.61
64858;SHT30;51335;51.148;6.950;2022-09-09T02:50:49;16.30;89.92
64858;SHT30;51335;51.148;6.950;2022-09-09T02:52:14;16.20;90.15
64858;SHT30;51335;51.148;6.950;2022-09-09T02:54:28;16.14;90.76
64858;SHT30;51335;51.148;6.950;2022-09-09T02:55:05;16.13;90.97
64858;SHT30;51335;51.148;6.950;2022-09-09T02:55:57;16.16;91.13
64858;SHT30;51335;51.148;6.950;2022-09-09T02:56:31;16.16;91.09
64858;SHT30;51335;51.148;6.950;2022-09-09T02:57:45;16.14;91.28
64858;SHT30;51335;51.148;6.950;2022-09-09T02:58:18;16.13;91.31
64858;SHT30;51335;51.148;6.950;2022-09-09T02:58:49;16.09;91.43
64858;SHT30;51335;51.148;6.950;2022-09-09T02:59:20;16.09;91.69
64858;SHT30;51335;51.148;6.950;2022-09-09T02:59:51;16.10;91.76
64858;SHT30;51335;51.148;6.950;2022-09-09T03:00:27;16.09;91.88
64858;SHT30;51335;51.148;6.950;2022-09-09T03:00:57;16.07;92.02
64858;SHT30;51335;51.148;6.950;2022-09-09T03:01:28;16.10;92.08
64858;SHT30;51335;51.148;6.950;2022-09-09T03:01:58;16.10;92.12
64858;SHT30;51335;51.148;6.950;2022-09-09T03:02:29;16.10;92.02
64858;SHT30;51335;51.148;6.950;2022-09-09T03:02:59;16.03;92.07
64858;SHT30;51335;51.148;6.950;2022-09-09T03:03:29;16.01;92.14
64858;SHT30;51335;51.148;6.950;2022-09-09T03:04:00;16.01;92.24
64858;SHT30;51335;51.148;6.950;2022-09-09T03:04:30;15.96;92.43
64858;SHT30;51335;51.148;6.950;2022-09-09T03:05:01;15.96;92.47
64858;SHT30;51335;51.148;6.950;2022-09-09T03:05:31;15.94;92.50
64858;SHT30;51335;51.148;6.950;2022-09-09T03:06:01;15.90;92.72
64858;SHT30;51335;51.148;6.950;2022-09-09T03:06:32;15.90;92.74
64858;SHT30;51335;51.148;6.950;2022-09-09T03:07:02;15.86;92.91
64858;SHT30;51335;51.148;6.950;2022-09-09T03:07:33;15.87;93.05
64858;SHT30;51335;51.148;6.950;2022-09-09T03:08:04;15.85;93.16
64858;SHT30;51335;51.148;6.950;2022-09-09T03:08:34;15.87;93.27
64858;SHT30;51335;51.148;6.950;2022-09-09T03:09:04;15.86;93.43
64858;SHT30;51335;51.148;6.950;2022-09-09T03:09:35;15.86;93.32
64858;SHT30;51335;51.148;6.950;2022-09-09T03:10:06;15.86;93.23
64858;SHT30;51335;51.148;6.950;2022-09-09T03:10:36;15.82;93.29
64858;SHT30;51335;51.148;6.950;2022-09-09T03:11:07;15.80;93.40
64858;SHT30;51335;51.148;6.950;2022-09-09T03:11:37;15.83;93.46
64858;SHT30;51335;51.148;6.950;2022-09-09T03:12:08;15.79;93.55
64858;SHT30;51335;51.148;6.950;2022-09-09T03:12:38;15.80;93.56
64858;SHT30;51335;51.148;6.950;2022-09-09T03:13:09;15.76;93.44
64858;SHT30;51335;51.148;6.950;2022-09-09T03:13:39;15.74;93.51
64858;SHT30;51335;51.148;6.950;2022-09-09T03:14:09;15.78;93.47
64858;SHT30;51335;51.148;6.950;2022-09-09T03:14:39;15.76;93.40
64858;SHT30;51335;51.148;6.950;2022-09-09T03:15:10;15.76;93.13
64858;SHT30;51335;51.148;6.950;2022-09-09T03:15:40;15.73;93.10
64858;SHT30;51335;51.148;6.950;2022-09-09T03:16:11;15.73;93.21
64858;SHT30;51335;51.148;6.950;2022-09-09T03:16:41;15.72;93.22
64858;SHT30;51335;51.148;6.950;2022-09-09T03:17:11;15.72;93.38
64858;SHT30;51335;51.148;6.950;2022-09-09T03:17:42;15.76;93.31
64858;SHT30;51335;51.148;6.950;2022-09-09T03:18:12;15.74;93.21
64858;SHT30;51335;51.148;6.950;2022-09-09T03:18:42;15.78;93.20
64858;SHT30;51335;51.148;6.950;2022-09-09T03:19:12;15.79;93.00
64858;SHT30;51335;51.148;6.950;2022-09-09T03:19:43;15.80;93.01
64858;SHT30;51335;51.148;6.950;2022-09-09T03:20:13;15.79;93.08
64858;SHT30;51335;51.148;6.950;2022-09-09T03:20:43;15.76;93.40
64858;SHT30;51335;51.148;6.950;2022-09-09T03:21:13;15.78;93.53
64858;SHT30;51335;51.148;6.950;2022-09-09T03:21:47;15.74;93.38
64858;SHT30;51335;51.148;6.950;2022-09-09T03:22:17;15.78;93.39
64858;SHT30;51335;51.148;6.950;2022-09-09T03:22:47;15.83;93.24
64858;SHT30;51335;51.148;6.950;2022-09-09T03:23:17;15.83;93.10
64858;SHT30;51335;51.148;6.950;2022-09-09T03:23:48;15.83;92.96
64858;SHT30;51335;51.148;6.950;2022-09-09T03:24:18;15.78;93.06
64858;SHT30;51335;51.148;6.950;2022-09-09T03:24:48;15.76;93.15
64858;SHT30;51335;51.148;6.950;2022-09-09T03:25:19;15.79;93.18
64858;SHT30;51335;51.148;6.950;2022-09-09T03:25:50;15.80;93.01
64858;SHT30;51335;51.148;6.950;2022-09-09T03:26:20;15.82;92.90
64858;SHT30;51335;51.148;6.950;2022-09-09T03:26:50;15.82;92.76
64858;SHT30;51335;51.148;6.950;2022-09-09T03:27:20;15.83;92.70
64858;SHT30;51335;51.148;6.950;2022-09-09T03:27:52;15.78;92.60
64858;SHT30;51335;51.148;6.950;2022-09-09T03:28:22;15.87;92.52
64858;SHT30;51335;51.148;6.950;2022-09-09T03:28:53;15.91;92.20
64858;SHT30;51335;51.148;6.950;2022-09-09T03:29:23;15.90;92.11
64858;SHT30;51335;51.148;6.950;2022-09-09T03:29:53;15.90;92.07
64858;SHT30;51335;51.148;6.950;2022-09-09T03:30:26;15.91;92.11
64858;SHT30;51335;51.148;6.950;2022-09-09T03:31:00;15.91;91.92
64858;SHT30;51335;51.148;6.950;2022-09-09T03:31:31;15.91;91.99
64858;SHT30;51335;51.148;6.950;2022-09-09T03:32:01;15.86;92.04
64858;SHT30;51335;51.148;6.950;2022-09-09T03:32:32;15.85;92.13
64858;SHT30;51335;51.148;6.950;2022-09-09T03:33:02;15.83;92.25
64858;SHT30;51335;51.148;6.950;2022-09-09T03:33:32;15.80;92.40
64858;SHT30;51335;51.148;6.950;2022-09-09T03:34:03;15.78;92.49
64858;SHT30;51335;51.148;6.950;2022-09-09T03:34:33;15.80;92.53
64858;SHT30;51335;51.148;6.950;2022-09-09T03:35:03;15.79;92.59
64858;SHT30;51335;51.148;6.950;2022-09-09T03:35:34;15.79;92.69
64858;SHT30;51335;51.148;6.950;2022-09-09T03:36:05;15.79;92.71
64858;SHT30;51335;51.148;6.950;2022-09-09T03:36:36;15.74;92.89
64858;SHT30;51335;51.148;6.950;2022-09-09T03:37:06;15.72;92.94
64858;SHT30;51335;51.148;6.950;2022-09-09T03:37:36;15.69;93.07
64858;SHT30;51335;51.148;6.950;2022-09-09T03:38:07;15.65;93.17
64858;SHT30;51335;51.148;6.950;2022-09-09T03:38:37;15.72;93.30
64858;SHT30;51335;51.148;6.950;2022-09-09T03:39:07;15.69;93.31
64858;SHT30;51335;51.148;6.950;2022-09-09T03:39:37;15.70;93.33
64858;SHT30;51335;51.148;6.950;2022-09-09T03:40:08;15.67;93.39
64858;SHT30;51335;51.148;6.950;2022-09-09T03:40:39;15.76;93.15
64858;SHT30;51335;51.148;6.950;2022-09-09T03:41:09;15.76;93.04
64858;SHT30;51335;51.148;6.950;2022-09-09T03:41:39;15.74;93.02
64858;SHT30;51335;51.148;6.950;2022-09-09T03:42:12;15.74;93.01
64858;SHT30;51335;51.148;6.950;2022-09-09T03:42:43;15.76;93.03
64858;SHT30;51335;51.148;6.950;2022-09-09T03:43:13;15.76;92.93
64858;SHT30;51335;51.148;6.950;2022-09-09T03:43:43;15.72;92.96
64858;SHT30;51335;51.148;6.950;2022-09-09T03:44:14;15.78;92.94
64858;SHT30;51335;51.148;6.950;2022-09-09T03:44:46;15.78;92.76
64858;SHT30;51335;51.148;6.950;2022-09-09T03:45:16;15.78;92.83
64858;SHT30;51335;51.148;6.950;2022-09-09T03:45:47;15.78;92.81
64858;SHT30;51335;51.148;6.950;2022-09-09T03:46:21;15.82;92.80
64858;SHT30;51335;51.148;6.950;2022-09-09T03:46:52;15.82;92.75
64858;SHT30;51335;51.148;6.950;2022-09-09T03:47:22;15.80;92.77
64858;SHT30;51335;51.148;6.950;2022-09-09T03:47:53;15.76;92.72
64858;SHT30;51335;51.148;6.950;2022-09-09T03:48:24;15.82;92.80
64858;SHT30;51335;51.148;6.950;2022-09-09T03:48:54;15.83;92.60
64858;SHT30;51335;51.148;6.950;2022-09-09T03:49:24;15.80;92.53
64858;SHT30;51335;51.148;6.950;2022-09-09T03:49:55;15.85;92.44
64858;SHT30;51335;51.148;6.950;2022-09-09T03:50:25;15.87;92.29
64858;SHT30;51335;51.148;6.950;2022-09-09T03:50:56;15.82;92.30
64858;SHT30;51335;51.148;6.950;2022-09-09T03:51:26;15.83;92.37
64858;SHT30;51335;51.148;6.950;2022-09-09T03:51:56;15.90;92.32
64858;SHT30;51335;51.148;6.950;2022-09-09T03:52:27;15.90;92.26
64858;SHT30;51335;51.148;6.950;2022-09-09T03:52:57;15.89;92.01
64858;SHT30;51335;51.148;6.950;2022-09-09T03:53:28;15.91;92.04
64858;SHT30;51335;51.148;6.950;2022-09-09T03:53:59;15.94;91.97
64858;SHT30;51335;51.148;6.950;2022-09-09T03:54:29;15.91;91.94
64858;SHT30;51335;51.148;6.950;2022-09-09T03:54:59;15.93;91.90
64858;SHT30;51335;51.148;6.950;2022-09-09T03:55:29;15.91;91.95
64858;SHT30;51335;51.148;6.950;2022-09-09T03:56:00;15.93;92.06
64858;SHT30;51335;51.148;6.950;2022-09-09T03:56:30;15.93;92.02
64858;SHT30;51335;51.148;6.950;2022-09-09T03:57:01;15.93;92.10
64858;SHT30;51335;51.148;6.950;2022-09-09T03:57:32;15.90;92.21
64858;SHT30;51335;51.148;6.950;2022-09-09T03:58:03;15.87;92.30
64858;SHT30;51335;51.148;6.950;2022-09-09T03:58:34;15.86;92.31
64858;SHT30;51335;51.148;6.950;2022-09-09T03:59:04;15.83;92.36
64858;SHT30;51335;51.148;6.950;2022-09-09T03:59:34;15.87;92.45
64858;SHT30;51335;51.148;6.950;2022-09-09T04:00:06;15.85;92.39
64858;SHT30;51335;51.148;6.950;2022-09-09T04:00:37;15.85;92.41
64858;SHT30;51335;51.148;6.950;2022-09-09T04:01:11;15.86;92.56
64858;SHT30;51335;51.148;6.950;2022-09-09T04:01:41;15.85;92.52
64858;SHT30;51335;51.148;6.950;2022-09-09T04:02:12;15.83;92.49
64858;SHT30;51335;51.148;6.950;2022-09-09T04:02:42;15.82;92.53
64858;SHT30;51335;51.148;6.950;2022-09-09T04:03:12;15.80;92.57
64858;SHT30;51335;51.148;6.950;2022-09-09T04:03:43;15.83;92.61
64858;SHT30;51335;51.148;6.950;2022-09-09T04:04:14;15.86;92.61
64858;SHT30;51335;51.148;6.950;2022-09-09T04:04:44;15.87;92.51
64858;SHT30;51335;51.148;6.950;2022-09-09T04:05:14;15.93;92.27
64858;SHT30;51335;51.148;6.950;2022-09-09T04:05:45;15.99;92.06
64858;SHT30;51335;51.148;6.950;2022-09-09T04:06:18;15.99;91.96
64858;SHT30;51335;51.148;6.950;2022-09-09T04:06:48;16.03;91.68
64858;SHT30;51335;51.148;6.950;2022-09-09T04:07:19;15.99;91.71
64858;SHT30;51335;51.148;6.950;2022-09-09T04:07:49;15.96;91.83
64858;SHT30;51335;51.148;6.950;2022-09-09T04:08:20;15.93;91.96
64858;SHT30;51335;51.148;6.950;2022-09-09T04:08:51;15.90;92.05
64858;SHT30;51335;51.148;6.950;2022-09-09T04:09:21;15.89;92.12
64858;SHT30;51335;51.148;6.950;2022-09-09T04:09:51;15.87;92.19
64858;SHT30;51335;51.148;6.950;2022-09-09T04:10:21;15.87;92.25
64858;SHT30;51335;51.148;6.950;2022-09-09T04:10:52;15.87;92.32
64858;SHT30;51335;51.148;6.950;2022-09-09T04:11:23;15.91;92.17
64858;SHT30;51335;51.148;6.950;2022-09-09T04:11:53;15.93;92.16
64858;SHT30;51335;51.148;6.950;2022-09-09T04:12:23;15.96;92.09
64858;SHT30;51335;51.148;6.950;2022-09-09T04:12:54;15.97;91.85
64858;SHT30;51335;51.148;6.950;2022-09-09T04:13:24;16.03;91.62
64858;SHT30;51335;51.148;6.950;2022-09-09T04:13:55;16.00;91.41
64858;SHT30;51335;51.148;6.950;2022-09-09T04:14:25;16.00;91.47
64858;SHT30;51335;51.148;6.950;2022-09-09T04:14:55;15.99;91.63